sensor_id;sensor_type;location;lat;lon;timestamp;temperature;humidity
84739;DHT22;74969;44.836;-0.586;2023-12-28T00:00:55;7.70;78.30
84739;DHT22;74969;44.836;-0.586;2023-12-28T00:03:21;7.70;78.30
84739;DHT22;74969;44.836;-0.586;2023-12-28T00:05:47;7.70;78.20
84739;DHT22;74969;44.836;-0.586;2023-12-28T00:08:13;7.60;78.30
84739;DHT22;74969;44.836;-0.586;2023-12-28T00:10:38;7.70;78.30
84739;DHT22;74969;44.836;-0.586;2023-12-28T00:13:04;7.60;78.40
84739;DHT22;74969;44.836;-0.586;2023-12-28T00:15:30;7.60;78.30
84739;DHT22;74969;44.836;-0.586;2023-12-28T00:17:55;7.70;78.30
84739;DHT22;74969;44.836;-0.586;2023-12-28T00:20:21;7.60;78.40
84739;DHT22;74969;44.836;-0.586;2023-12-28T00:22:47;7.60;78.50
84739;DHT22;74969;44.836;-0.586;2023-12-28T00:25:12;7.60;78.60
84739;DHT22;74969;44.836;-0.586;2023-12-28T00:27:38;7.60;78.60
84739;DHT22;74969;44.836;-0.586;2023-12-28T00:30:05;7.60;78.70
84739;DHT22;74969;44.836;-0.586;2023-12-28T00:32:31;7.60;78.70
84739;DHT22;74969;44.836;-0.586;2023-12-28T00:34:57;7.60;78.70
84739;DHT22;74969;44.836;-0.586;2023-12-28T00:37:23;7.60;78.70
84739;DHT22;74969;44.836;-0.586;2023-12-28T00:39:50;7.60;78.70
84739;DHT22;74969;44.836;-0.586;2023-12-28T00:42:17;7.60;78.90
84739;DHT22;74969;44.836;-0.586;2023-12-28T00:44:42;7.60;78.70
84739;DHT22;74969;44.836;-0.586;2023-12-28T00:47:08;7.70;78.70
84739;DHT22;74969;44.836;-0.586;2023-12-28T00:49:34;7.70;78.70
84739;DHT22;74969;44.836;-0.586;2023-12-28T00:51:59;7.70;78.60
84739;DHT22;74969;44.836;-0.586;2023-12-28T00:54:25;7.70;78.60
84739;DHT22;74969;44.836;-0.586;2023-12-28T00:56:51;7.80;78.60
84739;DHT22;74969;44.836;-0.586;2023-12-28T00:59:16;7.80;78.40
84739;DHT22;74969;44.836;-0.586;2023-12-28T01:01:42;7.80;78.40
84739;DHT22;74969;44.836;-0.586;2023-12-28T01:04:08;7.80;78.20
84739;DHT22;74969;44.836;-0.586;2023-12-28T01:06:33;7.80;78.30
84739;DHT22;74969;44.836;-0.586;2023-12-28T01:08:59;7.80;78.30
84739;DHT22;74969;44.836;-0.586;2023-12-28T01:11:24;7.80;78.50
84739;DHT22;74969;44.836;-0.586;2023-12-28T01:13:51;7.80;78.60
84739;DHT22;74969;44.836;-0.586;2023-12-28T01:16:17;7.80;78.70
84739;DHT22;74969;44.836;-0.586;2023-12-28T01:18:43;7.80;78.80
84739;DHT22;74969;44.836;-0.586;2023-12-28T01:21:08;7.80;78.90
84739;DHT22;74969;44.836;-0.586;2023-12-28T01:23:34;7.80;78.90
84739;DHT22;74969;44.836;-0.586;2023-12-28T01:26:00;7.80;78.90
84739;DHT22;74969;44.836;-0.586;2023-12-28T01:28:26;7.80;78.90
84739;DHT22;74969;44.836;-0.586;2023-12-28T01:30:52;7.80;79.10
84739;DHT22;74969;44.836;-0.586;2023-12-28T01:33:17;7.80;79.20
84739;DHT22;74969;44.836;-0.586;2023-12-28T01:35:43;7.80;79.10
84739;DHT22;74969;44.836;-0.586;2023-12-28T01:38:09;7.70;79.20
84739;DHT22;74969;44.836;-0.586;2023-12-28T01:40:34;7.80;79.30
84739;DHT22;74969;44.836;-0.586;2023-12-28T01:43:00;7.80;79.20
84739;DHT22;74969;44.836;-0.586;2023-12-28T01:45:26;7.80;79.40
84739;DHT22;74969;44.836;-0.586;2023-12-28T01:47:53;7.80;79.50
84739;DHT22;74969;44.836;-0.586;2023-12-28T01:50:20;7.80;79.50
84739;DHT22;74969;44.836;-0.586;2023-12-28T01:52:46;7.80;79.70
84739;DHT22;74969;44.836;-0.586;2023-12-28T01:55:13;7.80;79.70
84739;DHT22;74969;44.836;-0.586;2023-12-28T01:57:40;7.80;79.80
84739;DHT22;74969;44.836;-0.586;2023-12-28T02:00:06;7.90;79.90
84739;DHT22;74969;44.836;-0.586;2023-12-28T02:02:33;7.90;79.70
84739;DHT22;74969;44.836;-0.586;2023-12-28T02:04:59;8.00;79.40
84739;DHT22;74969;44.836;-0.586;2023-12-28T02:07:25;8.00;79.30
84739;DHT22;74969;44.836;-0.586;2023-12-28T02:09:51;7.90;79.40
84739;DHT22;74969;44.836;-0.586;2023-12-28T02:12:17;8.00;79.50
84739;DHT22;74969;44.836;-0.586;2023-12-28T02:14:43;8.00;79.50
84739;DHT22;74969;44.836;-0.586;2023-12-28T02:17:53;8.00;79.60
84739;DHT22;74969;44.836;-0.586;2023-12-28T02:20:21;8.00;79.70
84739;DHT22;74969;44.836;-0.586;2023-12-28T02:22:48;8.00;79.60
84739;DHT22;74969;44.836;-0.586;2023-12-28T02:25:14;8.00;79.70
84739;DHT22;74969;44.836;-0.586;2023-12-28T02:27:48;8.00;79.70
84739;DHT22;74969;44.836;-0.586;2023-12-28T02:30:20;8.10;79.70
84739;DHT22;74969;44.836;-0.586;2023-12-28T02:35:31;8.10;79.80
84739;DHT22;74969;44.836;-0.586;2023-12-28T02:38:12;8.10;79.90
84739;DHT22;74969;44.836;-0.586;2023-12-28T02:40:42;8.10;79.80
84739;DHT22;74969;44.836;-0.586;2023-12-28T02:43:10;8.20;79.80
84739;DHT22;74969;44.836;-0.586;2023-12-28T02:45:36;8.20;79.80
84739;DHT22;74969;44.836;-0.586;2023-12-28T02:48:03;8.20;79.90
84739;DHT22;74969;44.836;-0.586;2023-12-28T02:50:29;8.20;79.90
84739;DHT22;74969;44.836;-0.586;2023-12-28T02:52:57;8.20;79.90
84739;DHT22;74969;44.836;-0.586;2023-12-28T02:55:23;8.20;79.80
84739;DHT22;74969;44.836;-0.586;2023-12-28T02:57:50;8.20;79.80
84739;DHT22;74969;44.836;-0.586;2023-12-28T03:00:16;8.20;79.80
84739;DHT22;74969;44.836;-0.586;2023-12-28T03:02:42;8.20;79.80
84739;DHT22;74969;44.836;-0.586;2023-12-28T03:05:08;8.20;80.00
84739;DHT22;74969;44.836;-0.586;2023-12-28T03:07:34;8.20;79.90
84739;DHT22;74969;44.836;-0.586;2023-12-28T03:10:01;8.20;79.90
84739;DHT22;74969;44.836;-0.586;2023-12-28T03:12:28;8.30;79.90
84739;DHT22;74969;44.836;-0.586;2023-12-28T03:14:54;8.30;79.70
84739;DHT22;74969;44.836;-0.586;2023-12-28T03:17:19;8.30;79.70
84739;DHT22;74969;44.836;-0.586;2023-12-28T03:19:45;8.30;79.90
84739;DHT22;74969;44.836;-0.586;2023-12-28T03:22:11;8.30;80.00
84739;DHT22;74969;44.836;-0.586;2023-12-28T03:24:37;8.30;79.90
84739;DHT22;74969;44.836;-0.586;2023-12-28T03:27:04;8.30;80.00
84739;DHT22;74969;44.836;-0.586;2023-12-28T03:29:30;8.30;80.10
84739;DHT22;74969;44.836;-0.586;2023-12-28T03:31:56;8.30;80.30
84739;DHT22;74969;44.836;-0.586;2023-12-28T03:34:22;8.30;80.20
84739;DHT22;74969;44.836;-0.586;2023-12-28T03:36:51;8.30;80.30
84739;DHT22;74969;44.836;-0.586;2023-12-28T03:39:16;8.30;80.30
84739;DHT22;74969;44.836;-0.586;2023-12-28T03:41:42;8.20;80.40
84739;DHT22;74969;44.836;-0.586;2023-12-28T03:44:08;8.20;80.50
84739;DHT22;74969;44.836;-0.586;2023-12-28T03:46:33;8.20;80.60
84739;DHT22;74969;44.836;-0.586;2023-12-28T03:48:59;8.30;80.30
84739;DHT22;74969;44.836;-0.586;2023-12-28T03:51:25;8.40;80.40
84739;DHT22;74969;44.836;-0.586;2023-12-28T03:53:50;8.40;80.10
84739;DHT22;74969;44.836;-0.586;2023-12-28T03:58:49;8.40;80.00
84739;DHT22;74969;44.836;-0.586;2023-12-28T04:01:20;8.40;80.10
84739;DHT22;74969;44.836;-0.586;2023-12-28T04:03:46;8.50;80.00
84739;DHT22;74969;44.836;-0.586;2023-12-28T04:06:13;8.50;79.90
84739;DHT22;74969;44.836;-0.586;2023-12-28T04:08:39;8.50;80.00
84739;DHT22;74969;44.836;-0.586;2023-12-28T04:11:05;8.40;80.10
84739;DHT22;74969;44.836;-0.586;2023-12-28T04:13:31;8.40;80.30
84739;DHT22;74969;44.836;-0.586;2023-12-28T04:15:57;8.40;80.30
84739;DHT22;74969;44.836;-0.586;2023-12-28T04:18:23;8.50;80.30
84739;DHT22;74969;44.836;-0.586;2023-12-28T04:20:48;8.50;80.40
84739;DHT22;74969;44.836;-0.586;2023-12-28T04:23:15;8.50;80.20
84739;DHT22;74969;44.836;-0.586;2023-12-28T04:25:40;8.50;80.20
84739;DHT22;74969;44.836;-0.586;2023-12-28T04:28:06;8.50;80.30
84739;DHT22;74969;44.836;-0.586;2023-12-28T04:30:33;8.50;80.40
84739;DHT22;74969;44.836;-0.586;2023-12-28T04:32:58;8.50;80.30
84739;DHT22;74969;44.836;-0.586;2023-12-28T04:35:24;8.60;80.10
84739;DHT22;74969;44.836;-0.586;2023-12-28T04:37:49;8.60;80.20
84739;DHT22;74969;44.836;-0.586;2023-12-28T04:40:15;8.50;80.50
84739;DHT22;74969;44.836;-0.586;2023-12-28T04:42:42;8.50;80.40
84739;DHT22;74969;44.836;-0.586;2023-12-28T04:45:08;8.50;80.40
84739;DHT22;74969;44.836;-0.586;2023-12-28T04:47:35;8.50;80.50
84739;DHT22;74969;44.836;-0.586;2023-12-28T04:50:01;8.50;80.50
84739;DHT22;74969;44.836;-0.586;2023-12-28T04:52:28;8.50;80.70
84739;DHT22;74969;44.836;-0.586;2023-12-28T04:54:53;8.50;80.60
84739;DHT22;74969;44.836;-0.586;2023-12-28T04:57:19;8.50;80.80
84739;DHT22;74969;44.836;-0.586;2023-12-28T04:59:45;8.50;80.90
84739;DHT22;74969;44.836;-0.586;2023-12-28T05:02:10;8.50;81.00
84739;DHT22;74969;44.836;-0.586;2023-12-28T05:04:39;8.50;81.00
84739;DHT22;74969;44.836;-0.586;2023-12-28T05:07:05;8.50;81.00
84739;DHT22;74969;44.836;-0.586;2023-12-28T05:09:30;8.60;80.80
84739;DHT22;74969;44.836;-0.586;2023-12-28T05:11:56;8.60;80.70
84739;DHT22;74969;44.836;-0.586;2023-12-28T05:14:22;8.60;80.70
84739;DHT22;74969;44.836;-0.586;2023-12-28T05:16:48;8.50;80.80
84739;DHT22;74969;44.836;-0.586;2023-12-28T05:19:13;8.50;81.10
84739;DHT22;74969;44.836;-0.586;2023-12-28T05:21:39;8.50;81.20
84739;DHT22;74969;44.836;-0.586;2023-12-28T05:24:05;8.50;81.00
84739;DHT22;74969;44.836;-0.586;2023-12-28T05:26:31;8.60;81.10
84739;DHT22;74969;44.836;-0.586;2023-12-28T05:28:57;8.60;80.90
84739;DHT22;74969;44.836;-0.586;2023-12-28T05:31:22;8.60;80.80
84739;DHT22;74969;44.836;-0.586;2023-12-28T05:33:48;8.60;81.00
84739;DHT22;74969;44.836;-0.586;2023-12-28T05:36:13;8.60;81.00
84739;DHT22;74969;44.836;-0.586;2023-12-28T05:38:39;8.60;81.10
84739;DHT22;74969;44.836;-0.586;2023-12-28T05:41:05;8.60;81.20
84739;DHT22;74969;44.836;-0.586;2023-12-28T05:43:31;8.50;81.40
84739;DHT22;74969;44.836;-0.586;2023-12-28T05:45:56;8.60;81.50
84739;DHT22;74969;44.836;-0.586;2023-12-28T05:48:22;8.60;81.30
84739;DHT22;74969;44.836;-0.586;2023-12-28T05:50:47;8.60;81.40
84739;DHT22;74969;44.836;-0.586;2023-12-28T05:53:13;8.60;81.30
84739;DHT22;74969;44.836;-0.586;2023-12-28T05:55:43;8.60;81.40
84739;DHT22;74969;44.836;-0.586;2023-12-28T05:58:09;8.70;81.50
84739;DHT22;74969;44.836;-0.586;2023-12-28T06:00:35;8.70;81.60
84739;DHT22;74969;44.836;-0.586;2023-12-28T06:03:08;8.70;81.60
84739;DHT22;74969;44.836;-0.586;2023-12-28T06:05:33;8.70;81.70
84739;DHT22;74969;44.836;-0.586;2023-12-28T06:07:59;8.70;81.70
84739;DHT22;74969;44.836;-0.586;2023-12-28T06:10:25;8.70;81.70
84739;DHT22;74969;44.836;-0.586;2023-12-28T06:12:50;8.70;81.80
84739;DHT22;74969;44.836;-0.586;2023-12-28T06:15:16;8.70;81.90
84739;DHT22;74969;44.836;-0.586;2023-12-28T06:17:42;8.70;82.00
84739;DHT22;74969;44.836;-0.586;2023-12-28T06:20:08;8.70;81.90
84739;DHT22;74969;44.836;-0.586;2023-12-28T06:22:37;8.70;82.10
84739;DHT22;74969;44.836;-0.586;2023-12-28T06:25:03;8.70;82.30
84739;DHT22;74969;44.836;-0.586;2023-12-28T06:27:30;8.70;82.20
84739;DHT22;74969;44.836;-0.586;2023-12-28T06:29:55;8.70;82.20
84739;DHT22;74969;44.836;-0.586;2023-12-28T06:32:21;8.70;82.30
84739;DHT22;74969;44.836;-0.586;2023-12-28T06:34:47;8.70;82.20
84739;DHT22;74969;44.836;-0.586;2023-12-28T06:37:14;8.70;82.10
84739;DHT22;74969;44.836;-0.586;2023-12-28T06:39:39;8.80;82.20
84739;DHT22;74969;44.836;-0.586;2023-12-28T06:42:05;8.80;82.20
84739;DHT22;74969;44.836;-0.586;2023-12-28T06:44:31;8.80;82.20
84739;DHT22;74969;44.836;-0.586;2023-12-28T06:46:57;8.80;82.10
84739;DHT22;74969;44.836;-0.586;2023-12-28T06:49:23;8.90;82.00
84739;DHT22;74969;44.836;-0.586;2023-12-28T06:51:49;8.90;81.90
84739;DHT22;74969;44.836;-0.586;2023-12-28T06:54:15;8.90;82.00
84739;DHT22;74969;44.836;-0.586;2023-12-28T06:56:41;8.90;82.00
84739;DHT22;74969;44.836;-0.586;2023-12-28T06:59:07;8.90;81.80
84739;DHT22;74969;44.836;-0.586;2023-12-28T07:01:33;9.00;81.90
84739;DHT22;74969;44.836;-0.586;2023-12-28T07:03:58;9.00;81.90
84739;DHT22;74969;44.836;-0.586;2023-12-28T07:06:25;9.00;81.90
84739;DHT22;74969;44.836;-0.586;2023-12-28T07:08:50;9.00;81.80
84739;DHT22;74969;44.836;-0.586;2023-12-28T07:11:16;9.00;81.80
84739;DHT22;74969;44.836;-0.586;2023-12-28T07:13:42;9.00;81.70
84739;DHT22;74969;44.836;-0.586;2023-12-28T07:16:07;9.00;81.70
84739;DHT22;74969;44.836;-0.586;2023-12-28T07:18:33;9.00;81.70
84739;DHT22;74969;44.836;-0.586;2023-12-28T07:20:59;9.00;81.70
84739;DHT22;74969;44.836;-0.586;2023-12-28T07:23:26;9.00;81.70
84739;DHT22;74969;44.836;-0.586;2023-12-28T07:25:52;9.00;81.60
84739;DHT22;74969;44.836;-0.586;2023-12-28T07:28:18;9.00;81.50
84739;DHT22;74969;44.836;-0.586;2023-12-28T07:30:44;9.00;81.30
84739;DHT22;74969;44.836;-0.586;2023-12-28T07:33:09;9.10;81.30
84739;DHT22;74969;44.836;-0.586;2023-12-28T07:35:35;9.00;81.40
84739;DHT22;74969;44.836;-0.586;2023-12-28T07:38:01;9.00;81.40
84739;DHT22;74969;44.836;-0.586;2023-12-28T07:40:27;9.00;81.60
84739;DHT22;74969;44.836;-0.586;2023-12-28T07:42:53;9.00;81.60
84739;DHT22;74969;44.836;-0.586;2023-12-28T07:45:18;9.00;81.40
84739;DHT22;74969;44.836;-0.586;2023-12-28T07:47:49;9.00;81.40
84739;DHT22;74969;44.836;-0.586;2023-12-28T07:50:16;9.00;81.40
84739;DHT22;74969;44.836;-0.586;2023-12-28T07:52:42;9.00;81.50
84739;DHT22;74969;44.836;-0.586;2023-12-28T07:55:08;9.00;81.40
84739;DHT22;74969;44.836;-0.586;2023-12-28T07:57:35;9.00;81.40
84739;DHT22;74969;44.836;-0.586;2023-12-28T08:00:02;9.00;81.30
84739;DHT22;74969;44.836;-0.586;2023-12-28T08:02:28;9.00;81.40
84739;DHT22;74969;44.836;-0.586;2023-12-28T08:04:56;9.00;81.40
84739;DHT22;74969;44.836;-0.586;2023-12-28T08:07:22;9.10;81.40
84739;DHT22;74969;44.836;-0.586;2023-12-28T08:09:48;9.00;81.30
84739;DHT22;74969;44.836;-0.586;2023-12-28T08:12:14;9.00;81.30
84739;DHT22;74969;44.836;-0.586;2023-12-28T08:14:39;9.00;81.40
84739;DHT22;74969;44.836;-0.586;2023-12-28T08:17:05;9.00;81.40
84739;DHT22;74969;44.836;-0.586;2023-12-28T08:19:31;9.00;81.30
84739;DHT22;74969;44.836;-0.586;2023-12-28T08:21:56;9.00;81.50
84739;DHT22;74969;44.836;-0.586;2023-12-28T08:24:23;9.00;81.50
84739;DHT22;74969;44.836;-0.586;2023-12-28T08:29:01;9.50;81.00
84739;DHT22;74969;44.836;-0.586;2023-12-28T08:31:27;9.10;81.10
84739;DHT22;74969;44.836;-0.586;2023-12-28T08:33:54;9.00;81.30
84739;DHT22;74969;44.836;-0.586;2023-12-28T08:36:20;9.10;81.20
84739;DHT22;74969;44.836;-0.586;2023-12-28T08:38:45;9.10;80.90
84739;DHT22;74969;44.836;-0.586;2023-12-28T08:41:21;9.00;81.10
84739;DHT22;74969;44.836;-0.586;2023-12-28T08:43:49;9.10;81.20
84739;DHT22;74969;44.836;-0.586;2023-12-28T08:46:15;9.10;81.40
84739;DHT22;74969;44.836;-0.586;2023-12-28T08:48:41;9.20;81.00
84739;DHT22;74969;44.836;-0.586;2023-12-28T08:51:09;9.20;80.70
84739;DHT22;74969;44.836;-0.586;2023-12-28T08:53:35;9.20;80.50
84739;DHT22;74969;44.836;-0.586;2023-12-28T08:56:00;9.20;80.70
84739;DHT22;74969;44.836;-0.586;2023-12-28T08:58:27;9.10;80.90
84739;DHT22;74969;44.836;-0.586;2023-12-28T09:00:53;9.10;81.10
84739;DHT22;74969;44.836;-0.586;2023-12-28T09:03:18;9.20;80.90
84739;DHT22;74969;44.836;-0.586;2023-12-28T09:05:44;9.20;81.00
84739;DHT22;74969;44.836;-0.586;2023-12-28T09:08:09;9.20;80.70
84739;DHT22;74969;44.836;-0.586;2023-12-28T09:10:35;9.30;80.70
84739;DHT22;74969;44.836;-0.586;2023-12-28T09:13:04;9.30;80.50
84739;DHT22;74969;44.836;-0.586;2023-12-28T09:15:31;9.30;80.50
84739;DHT22;74969;44.836;-0.586;2023-12-28T09:17:57;9.30;80.70
84739;DHT22;74969;44.836;-0.586;2023-12-28T09:20:22;9.40;80.20
84739;DHT22;74969;44.836;-0.586;2023-12-28T09:22:48;9.40;80.20
84739;DHT22;74969;44.836;-0.586;2023-12-28T09:25:18;9.40;80.20
84739;DHT22;74969;44.836;-0.586;2023-12-28T09:27:44;9.50;80.20
84739;DHT22;74969;44.836;-0.586;2023-12-28T09:30:10;9.50;80.10
84739;DHT22;74969;44.836;-0.586;2023-12-28T09:32:36;9.50;79.90
84739;DHT22;74969;44.836;-0.586;2023-12-28T09:35:02;9.50;79.80
84739;DHT22;74969;44.836;-0.586;2023-12-28T09:37:27;9.50;79.70
84739;DHT22;74969;44.836;-0.586;2023-12-28T09:39:53;9.50;79.80
84739;DHT22;74969;44.836;-0.586;2023-12-28T09:42:32;9.40;80.00
84739;DHT22;74969;44.836;-0.586;2023-12-28T09:45:01;9.50;80.10
84739;DHT22;74969;44.836;-0.586;2023-12-28T09:47:27;9.50;79.90
84739;DHT22;74969;44.836;-0.586;2023-12-28T09:49:54;9.50;80.10
84739;DHT22;74969;44.836;-0.586;2023-12-28T09:52:19;9.70;79.80
84739;DHT22;74969;44.836;-0.586;2023-12-28T09:54:45;9.70;79.40
84739;DHT22;74969;44.836;-0.586;2023-12-28T09:57:11;9.70;79.20
84739;DHT22;74969;44.836;-0.586;2023-12-28T09:59:38;9.70;79.30
84739;DHT22;74969;44.836;-0.586;2023-12-28T10:02:04;9.70;79.10
84739;DHT22;74969;44.836;-0.586;2023-12-28T10:04:30;9.70;79.40
84739;DHT22;74969;44.836;-0.586;2023-12-28T10:06:56;9.80;79.30
84739;DHT22;74969;44.836;-0.586;2023-12-28T10:09:23;9.90;78.70
84739;DHT22;74969;44.836;-0.586;2023-12-28T10:11:53;9.90;78.50
84739;DHT22;74969;44.836;-0.586;2023-12-28T10:14:20;9.90;78.60
84739;DHT22;74969;44.836;-0.586;2023-12-28T10:16:46;9.90;78.60
84739;DHT22;74969;44.836;-0.586;2023-12-28T10:19:12;9.90;78.50
84739;DHT22;74969;44.836;-0.586;2023-12-28T10:21:42;9.90;78.70
84739;DHT22;74969;44.836;-0.586;2023-12-28T10:24:10;10.00;78.30
84739;DHT22;74969;44.836;-0.586;2023-12-28T10:26:36;10.00;78.00
84739;DHT22;74969;44.836;-0.586;2023-12-28T10:29:02;10.00;78.50
84739;DHT22;74969;44.836;-0.586;2023-12-28T10:31:29;10.00;78.70
84739;DHT22;74969;44.836;-0.586;2023-12-28T10:34:00;10.00;78.80
84739;DHT22;74969;44.836;-0.586;2023-12-28T10:36:28;10.00;78.60
84739;DHT22;74969;44.836;-0.586;2023-12-28T10:38:54;9.90;78.80
84739;DHT22;74969;44.836;-0.586;2023-12-28T10:41:20;10.00;78.80
84739;DHT22;74969;44.836;-0.586;2023-12-28T10:44:05;10.00;79.10
84739;DHT22;74969;44.836;-0.586;2023-12-28T10:46:32;10.00;78.90
84739;DHT22;74969;44.836;-0.586;2023-12-28T10:49:05;10.10;78.50
84739;DHT22;74969;44.836;-0.586;2023-12-28T10:51:35;10.10;78.60
84739;DHT22;74969;44.836;-0.586;2023-12-28T10:56:41;10.10;79.10
84739;DHT22;74969;44.836;-0.586;2023-12-28T10:59:25;10.00;79.40
84739;DHT22;74969;44.836;-0.586;2023-12-28T11:01:55;10.10;79.40
84739;DHT22;74969;44.836;-0.586;2023-12-28T11:04:41;10.10;79.60
84739;DHT22;74969;44.836;-0.586;2023-12-28T11:07:09;10.10;79.60
84739;DHT22;74969;44.836;-0.586;2023-12-28T11:09:37;10.10;79.80
84739;DHT22;74969;44.836;-0.586;2023-12-28T11:12:07;10.20;79.30
84739;DHT22;74969;44.836;-0.586;2023-12-28T11:14:34;10.20;79.20
84739;DHT22;74969;44.836;-0.586;2023-12-28T11:17:00;10.20;79.50
84739;DHT22;74969;44.836;-0.586;2023-12-28T11:19:28;10.10;79.90
84739;DHT22;74969;44.836;-0.586;2023-12-28T11:21:55;10.10;80.20
84739;DHT22;74969;44.836;-0.586;2023-12-28T11:24:22;10.20;80.10
84739;DHT22;74969;44.836;-0.586;2023-12-28T11:26:55;10.30;79.80
84739;DHT22;74969;44.836;-0.586;2023-12-28T11:29:21;10.50;79.90
84739;DHT22;74969;44.836;-0.586;2023-12-28T11:31:51;10.60;79.20
84739;DHT22;74969;44.836;-0.586;2023-12-28T11:34:17;10.80;78.70
84739;DHT22;74969;44.836;-0.586;2023-12-28T11:37:04;10.80;78.40
84739;DHT22;74969;44.836;-0.586;2023-12-28T11:39:33;10.70;78.70
84739;DHT22;74969;44.836;-0.586;2023-12-28T11:42:02;10.70;78.70
84739;DHT22;74969;44.836;-0.586;2023-12-28T11:44:36;10.80;78.50
84739;DHT22;74969;44.836;-0.586;2023-12-28T11:47:21;10.80;78.10
84739;DHT22;74969;44.836;-0.586;2023-12-28T11:49:47;10.70;78.00
84739;DHT22;74969;44.836;-0.586;2023-12-28T11:52:30;10.60;78.30
84739;DHT22;74969;44.836;-0.586;2023-12-28T11:54:57;10.70;78.80
84739;DHT22;74969;44.836;-0.586;2023-12-28T11:57:25;10.80;78.70
84739;DHT22;74969;44.836;-0.586;2023-12-28T12:00:01;10.80;77.90
84739;DHT22;74969;44.836;-0.586;2023-12-28T12:02:27;10.80;78.40
84739;DHT22;74969;44.836;-0.586;2023-12-28T12:04:56;10.80;78.40
84739;DHT22;74969;44.836;-0.586;2023-12-28T12:07:27;10.90;78.70
84739;DHT22;74969;44.836;-0.586;2023-12-28T12:09:59;10.90;78.10
84739;DHT22;74969;44.836;-0.586;2023-12-28T12:12:25;11.00;78.30
84739;DHT22;74969;44.836;-0.586;2023-12-28T12:14:51;11.00;78.30
84739;DHT22;74969;44.836;-0.586;2023-12-28T12:17:18;11.10;77.70
84739;DHT22;74969;44.836;-0.586;2023-12-28T12:19:44;11.20;77.80
84739;DHT22;74969;44.836;-0.586;2023-12-28T12:22:13;11.10;77.40
84739;DHT22;74969;44.836;-0.586;2023-12-28T12:24:40;11.20;77.80
84739;DHT22;74969;44.836;-0.586;2023-12-28T12:27:06;11.30;76.90
84739;DHT22;74969;44.836;-0.586;2023-12-28T12:29:32;11.30;76.50
84739;DHT22;74969;44.836;-0.586;2023-12-28T12:31:58;11.20;77.20
84739;DHT22;74969;44.836;-0.586;2023-12-28T12:34:24;11.20;76.90
84739;DHT22;74969;44.836;-0.586;2023-12-28T12:36:50;11.30;76.60
84739;DHT22;74969;44.836;-0.586;2023-12-28T12:39:19;11.30;76.70
84739;DHT22;74969;44.836;-0.586;2023-12-28T12:41:46;11.20;76.50
84739;DHT22;74969;44.836;-0.586;2023-12-28T12:44:13;11.20;77.00
84739;DHT22;74969;44.836;-0.586;2023-12-28T12:46:38;11.20;76.70
84739;DHT22;74969;44.836;-0.586;2023-12-28T12:49:05;11.20;76.70
84739;DHT22;74969;44.836;-0.586;2023-12-28T12:51:31;11.20;77.00
84739;DHT22;74969;44.836;-0.586;2023-12-28T12:54:00;11.20;76.90
84739;DHT22;74969;44.836;-0.586;2023-12-28T12:56:27;11.20;76.70
84739;DHT22;74969;44.836;-0.586;2023-12-28T12:58:56;11.20;76.80
84739;DHT22;74969;44.836;-0.586;2023-12-28T13:01:23;11.20;77.10
84739;DHT22;74969;44.836;-0.586;2023-12-28T13:03:50;11.30;77.00
84739;DHT22;74969;44.836;-0.586;2023-12-28T13:06:16;11.30;77.10
84739;DHT22;74969;44.836;-0.586;2023-12-28T13:08:42;11.40;77.00
84739;DHT22;74969;44.836;-0.586;2023-12-28T13:11:07;11.50;76.90
84739;DHT22;74969;44.836;-0.586;2023-12-28T13:13:34;11.70;76.50
84739;DHT22;74969;44.836;-0.586;2023-12-28T13:16:00;11.70;75.90
84739;DHT22;74969;44.836;-0.586;2023-12-28T13:18:26;11.80;76.40
84739;DHT22;74969;44.836;-0.586;2023-12-28T13:20:52;11.80;76.30
84739;DHT22;74969;44.836;-0.586;2023-12-28T13:23:18;11.90;75.90
84739;DHT22;74969;44.836;-0.586;2023-12-28T13:25:43;11.90;75.80
84739;DHT22;74969;44.836;-0.586;2023-12-28T13:28:10;12.00;75.90
84739;DHT22;74969;44.836;-0.586;2023-12-28T13:30:36;12.10;74.60
84739;DHT22;74969;44.836;-0.586;2023-12-28T13:33:06;12.00;74.70
84739;DHT22;74969;44.836;-0.586;2023-12-28T13:35:32;12.00;75.00
84739;DHT22;74969;44.836;-0.586;2023-12-28T13:38:00;12.00;74.70
84739;DHT22;74969;44.836;-0.586;2023-12-28T13:40:29;11.90;74.80
84739;DHT22;74969;44.836;-0.586;2023-12-28T13:42:58;11.90;74.50
84739;DHT22;74969;44.836;-0.586;2023-12-28T13:45:23;11.90;74.50
84739;DHT22;74969;44.836;-0.586;2023-12-28T13:47:49;11.90;74.70
84739;DHT22;74969;44.836;-0.586;2023-12-28T13:50:15;11.90;74.50
84739;DHT22;74969;44.836;-0.586;2023-12-28T13:52:41;11.90;74.70
84739;DHT22;74969;44.836;-0.586;2023-12-28T13:55:07;11.80;74.60
84739;DHT22;74969;44.836;-0.586;2023-12-28T13:57:32;11.80;74.60
84739;DHT22;74969;44.836;-0.586;2023-12-28T13:59:58;11.80;74.70
84739;DHT22;74969;44.836;-0.586;2023-12-28T14:02:31;11.90;74.80
84739;DHT22;74969;44.836;-0.586;2023-12-28T14:04:56;11.90;75.20
84739;DHT22;74969;44.836;-0.586;2023-12-28T14:07:23;11.90;75.10
84739;DHT22;74969;44.836;-0.586;2023-12-28T14:09:49;11.90;74.70
84739;DHT22;74969;44.836;-0.586;2023-12-28T14:12:14;12.00;75.00
84739;DHT22;74969;44.836;-0.586;2023-12-28T14:14:40;12.00;75.00
84739;DHT22;74969;44.836;-0.586;2023-12-28T14:17:06;11.90;75.10
84739;DHT22;74969;44.836;-0.586;2023-12-28T14:19:32;11.90;75.00
84739;DHT22;74969;44.836;-0.586;2023-12-28T14:21:58;12.00;75.10
84739;DHT22;74969;44.836;-0.586;2023-12-28T14:24:24;12.00;75.00
84739;DHT22;74969;44.836;-0.586;2023-12-28T14:26:55;12.00;75.20
84739;DHT22;74969;44.836;-0.586;2023-12-28T14:29:22;12.00;75.20
84739;DHT22;74969;44.836;-0.586;2023-12-28T14:31:48;11.90;75.30
84739;DHT22;74969;44.836;-0.586;2023-12-28T14:34:14;11.90;75.50
84739;DHT22;74969;44.836;-0.586;2023-12-28T14:36:40;11.90;75.60
84739;DHT22;74969;44.836;-0.586;2023-12-28T14:39:07;11.90;75.60
84739;DHT22;74969;44.836;-0.586;2023-12-28T14:41:34;12.00;75.70
84739;DHT22;74969;44.836;-0.586;2023-12-28T14:44:00;11.90;75.70
84739;DHT22;74969;44.836;-0.586;2023-12-28T14:46:26;12.00;75.80
84739;DHT22;74969;44.836;-0.586;2023-12-28T14:48:53;11.90;75.90
84739;DHT22;74969;44.836;-0.586;2023-12-28T14:51:19;11.90;76.00
84739;DHT22;74969;44.836;-0.586;2023-12-28T14:53:45;11.90;75.90
84739;DHT22;74969;44.836;-0.586;2023-12-28T14:56:11;11.90;76.20
84739;DHT22;74969;44.836;-0.586;2023-12-28T14:58:38;11.90;76.20
84739;DHT22;74969;44.836;-0.586;2023-12-28T15:01:04;12.00;76.10
84739;DHT22;74969;44.836;-0.586;2023-12-28T15:03:29;12.00;76.20
84739;DHT22;74969;44.836;-0.586;2023-12-28T15:05:55;12.00;76.20
84739;DHT22;74969;44.836;-0.586;2023-12-28T15:08:23;12.00;76.20
84739;DHT22;74969;44.836;-0.586;2023-12-28T15:10:49;12.00;76.50
84739;DHT22;74969;44.836;-0.586;2023-12-28T15:13:15;12.00;76.40
84739;DHT22;74969;44.836;-0.586;2023-12-28T15:15:42;12.00;76.50
84739;DHT22;74969;44.836;-0.586;2023-12-28T15:18:09;12.00;76.50
84739;DHT22;74969;44.836;-0.586;2023-12-28T15:20:35;12.00;76.50
84739;DHT22;74969;44.836;-0.586;2023-12-28T15:23:01;12.00;76.70
84739;DHT22;74969;44.836;-0.586;2023-12-28T15:25:27;12.00;76.60
84739;DHT22;74969;44.836;-0.586;2023-12-28T15:27:54;12.00;76.70
84739;DHT22;74969;44.836;-0.586;2023-12-28T15:30:19;12.00;76.90
84739;DHT22;74969;44.836;-0.586;2023-12-28T15:32:45;12.00;77.00